Maputo, Mozambique
Current Conditions -  °F | °C
As of 11:00 AM on Saturday 25 Oct 2014 (Local Time) from FQMA Reporting Station
Broken Clouds Broken Clouds  
Wind Chill: 79°   Ceiling: 2000
Heat Index: 80°   Visibility: 6mi
Dew Point: 59°   Wind: 8mph
Humidity: 51%   Direction: 130°SE
Pressure: 30.06"   Gusts: NA
Location:  25.95°S, 32.57°E
Report Text: FQMA 250900Z 13007KT 9999 BKN020 26/15 Q1018 NOSIG
Loading
Personal Weather Stations






























Interactive Weather Map
Tropical Storm Tracking
New forecast layout! Learn more

10-Day Weather Forecast

Advertisements
Track Severe Weather on mobile